createdAt,value
2024-05-09T00:00:39.849Z,7.15
2024-05-09T00:05:38.557Z,7.88
2024-05-09T00:10:38.278Z,7.15
2024-05-09T00:15:37.020Z,6.57
2024-05-09T00:20:38.921Z,7.18
2024-05-09T00:25:38.538Z,6.95
2024-05-09T00:30:37.145Z,5.90
2024-05-09T00:35:34.785Z,5.95
2024-05-09T00:40:40.014Z,6.20
2024-05-09T00:45:39.412Z,6.07
2024-05-09T00:50:38.779Z,6.38
2024-05-09T00:55:37.133Z,6.53
2024-05-09T01:00:40.012Z,6.30
2024-05-09T01:05:39.779Z,6.55
2024-05-09T01:10:37.637Z,6.13
2024-05-09T01:15:35.764Z,6.63
2024-05-09T01:20:40.968Z,6.00
2024-05-09T01:25:40.902Z,6.30
2024-05-09T01:30:38.745Z,6.68
2024-05-09T01:35:36.238Z,6.38
2024-05-09T01:40:38.529Z,6.40
2024-05-09T01:45:37.265Z,6.35
2024-05-09T01:50:39.547Z,5.88
2024-05-09T01:55:39.903Z,6.20
2024-05-09T02:00:41.089Z,6.90
2024-05-09T02:05:40.094Z,6.30
2024-05-09T02:10:37.345Z,6.55
2024-05-09T02:15:34.474Z,6.30
2024-05-09T02:20:36.204Z,6.25
2024-05-09T02:25:34.681Z,6.90
2024-05-09T02:35:33.866Z,6.05
2024-05-09T02:40:37.401Z,6.00
2024-05-09T02:45:36.360Z,6.70
2024-05-09T02:50:38.358Z,6.20
2024-05-09T02:55:37.236Z,6.38
2024-05-09T03:00:39.091Z,6.18
2024-05-09T03:05:38.899Z,6.75
2024-05-09T03:10:38.446Z,6.50
2024-05-09T03:15:37.052Z,7.05
2024-05-09T03:20:36.149Z,6.50
2024-05-09T03:25:34.544Z,6.50
2024-05-09T03:30:41.138Z,6.25
2024-05-09T03:35:40.280Z,6.57
2024-05-09T03:40:37.754Z,6.43
2024-05-09T03:45:34.928Z,7.18
2024-05-09T03:50:35.653Z,6.63
2024-05-09T03:55:33.864Z,6.90
2024-05-09T04:00:37.513Z,7.15
2024-05-09T04:05:37.964Z,6.65
2024-05-09T04:10:35.916Z,6.25
2024-05-09T04:15:33.340Z,6.10
2024-05-09T04:20:37.760Z,6.50
2024-05-09T04:25:37.894Z,6.35
2024-05-09T04:30:39.222Z,6.40
2024-05-09T04:35:38.580Z,6.53
2024-05-09T04:40:37.353Z,6.65
2024-05-09T04:45:37.213Z,6.28
2024-05-09T04:50:38.163Z,6.28
2024-05-09T04:55:37.101Z,6.38
2024-05-09T05:00:37.379Z,6.82
2024-05-09T05:05:40.348Z,5.90
2024-05-09T05:10:37.678Z,6.13
2024-05-09T05:15:34.886Z,5.50
2024-05-09T05:20:33.835Z,5.78
2024-05-09T05:25:33.050Z,5.50
2024-05-09T05:30:34.545Z,5.13
2024-05-09T05:35:34.043Z,5.82
2024-05-09T05:40:37.017Z,5.90
2024-05-09T05:45:35.665Z,5.28
2024-05-09T05:50:36.508Z,6.30
2024-05-09T05:55:35.376Z,5.43
2024-05-09T06:00:38.824Z,6.05
2024-05-09T06:05:40.719Z,5.28
2024-05-09T06:10:40.517Z,4.90
2024-05-09T06:15:39.653Z,5.20
2024-05-09T06:20:38.351Z,5.60
2024-05-09T06:25:36.406Z,5.53
2024-05-09T06:30:40.050Z,5.00
2024-05-09T06:35:39.043Z,6.88
2024-05-09T06:40:39.240Z,5.47
2024-05-09T06:45:39.563Z,5.13
2024-05-09T06:50:38.558Z,5.80
2024-05-09T06:55:37.462Z,5.60
2024-05-09T07:00:39.313Z,6.30
2024-05-09T07:05:38.483Z,5.70
2024-05-09T07:10:36.991Z,5.55
2024-05-09T07:15:34.561Z,5.20
2024-05-09T07:20:34.716Z,5.75
2024-05-09T07:25:32.463Z,5.13
2024-05-09T07:30:33.511Z,5.00
2024-05-09T07:35:31.963Z,4.07
2024-05-09T07:40:35.776Z,4.30
2024-05-09T07:52:32.430Z,3.97
2024-05-09T07:55:56.005Z,4.50
2024-05-09T08:00:55.207Z,4.55
2024-05-09T08:05:53.072Z,4.43
2024-05-09T08:10:51.291Z,4.75
2024-05-09T08:15:48.536Z,5.13
2024-05-09T08:20:49.801Z,4.45
2024-05-09T08:25:47.894Z,3.90
2024-05-09T08:30:45.631Z,4.47
2024-05-09T08:35:45.485Z,3.50
2024-05-09T08:40:47.240Z,3.90
2024-05-09T08:45:45.504Z,3.88
2024-05-09T08:50:43.146Z,3.47
2024-05-09T08:55:43.294Z,4.07
2024-05-09T09:00:45.658Z,3.67
2024-05-09T09:05:50.772Z,3.70
2024-05-09T09:10:53.744Z,4.03
2024-05-09T09:15:52.228Z,3.83
2024-05-09T09:20:50.152Z,3.92
2024-05-09T09:25:48.509Z,3.88
2024-05-09T09:30:46.336Z,3.75
2024-05-09T09:35:54.232Z,3.92
2024-05-09T09:40:51.578Z,3.85
2024-05-09T09:45:52.658Z,4.00
2024-05-09T09:50:52.255Z,3.90
2024-05-09T09:55:49.691Z,4.35
2024-05-09T10:00:46.972Z,3.63
2024-05-09T10:05:46.994Z,3.63
2024-05-09T10:10:48.465Z,4.25
2024-05-09T10:15:48.539Z,3.40
2024-05-09T10:20:49.181Z,3.20
2024-05-09T10:25:55.496Z,3.50
2024-05-09T10:31:09.754Z,3.13
2024-05-09T10:36:19.972Z,3.50
2024-05-09T10:41:17.695Z,3.47
2024-05-09T10:46:15.452Z,3.90
2024-05-09T10:51:18.307Z,3.47
2024-05-09T10:56:15.896Z,4.13
2024-05-09T11:01:15.856Z,4.05
2024-05-09T11:06:14.318Z,3.83
2024-05-09T11:11:11.547Z,3.40
2024-05-09T11:16:22.805Z,3.55
2024-05-09T11:21:20.030Z,3.85
2024-05-09T11:26:19.632Z,3.72
2024-05-09T11:31:16.968Z,4.00
2024-05-09T11:36:14.626Z,3.97
2024-05-09T11:41:20.893Z,4.57
2024-05-09T11:46:18.221Z,4.13
2024-05-09T11:51:15.403Z,3.90
2024-05-09T11:56:15.279Z,3.80
2024-05-09T12:01:12.626Z,3.53
2024-05-09T12:06:09.896Z,3.45
2024-05-09T12:11:07.149Z,4.50
2024-05-09T12:16:04.395Z,3.83
2024-05-09T12:21:02.253Z,3.40
2024-05-09T12:25:59.401Z,4.10
2024-05-09T12:30:56.857Z,4.05
2024-05-09T12:35:54.389Z,4.55
2024-05-09T12:40:54.424Z,3.72
2024-05-09T12:45:51.785Z,3.15
2024-05-09T12:50:49.196Z,3.72
2024-05-09T12:55:53.602Z,3.35
2024-05-09T13:00:55.184Z,3.90
2024-05-09T13:05:52.747Z,3.70
2024-05-09T13:10:53.228Z,3.42
2024-05-09T13:15:50.786Z,3.92
2024-05-09T13:20:48.228Z,4.35
2024-05-09T13:25:46.076Z,4.65
2024-05-09T13:30:44.320Z,4.95
2024-05-09T13:35:48.802Z,4.03
2024-05-09T13:40:48.865Z,3.78
2024-05-09T13:45:46.564Z,4.60
2024-05-09T13:50:44.050Z,3.78
2024-05-09T13:55:41.257Z,3.65
2024-05-09T14:00:46.112Z,3.92
2024-05-09T14:05:46.156Z,3.60
2024-05-09T14:10:47.076Z,3.78
2024-05-09T14:15:44.603Z,4.10
2024-05-09T14:20:42.456Z,3.90
2024-05-09T14:25:42.832Z,3.40
2024-05-09T14:30:41.981Z,3.47
2024-05-09T14:35:39.579Z,4.00
2024-05-09T14:40:42.150Z,3.42
2024-05-09T14:45:41.274Z,4.53
2024-05-09T14:50:41.128Z,5.45
2024-05-09T14:55:39.646Z,3.60
2024-05-09T15:00:42.431Z,3.28
2024-05-09T15:05:42.275Z,3.38
2024-05-09T15:10:39.564Z,3.92
2024-05-09T15:15:37.152Z,3.78
2024-05-09T15:20:37.134Z,3.80
2024-05-09T15:25:37.136Z,3.55
2024-05-09T15:30:35.457Z,4.53
2024-05-09T15:35:34.169Z,4.70
2024-05-09T15:40:38.257Z,4.13
2024-05-09T15:45:37.686Z,5.40
2024-05-09T15:50:39.416Z,4.75
2024-05-09T15:55:40.112Z,5.85
2024-05-09T16:00:41.000Z,6.07
2024-05-09T16:05:41.917Z,5.93
2024-05-09T16:10:43.227Z,6.05
2024-05-09T16:15:41.973Z,6.30
2024-05-09T16:20:41.649Z,5.32
2024-05-09T16:25:45.231Z,5.90
2024-05-09T16:30:42.486Z,6.28
2024-05-09T16:35:42.455Z,5.78
2024-05-09T16:40:41.679Z,6.00
2024-05-09T16:45:40.979Z,6.70
2024-05-09T16:50:39.476Z,5.57
2024-05-09T16:55:39.806Z,5.40
2024-05-09T17:00:42.007Z,5.57
2024-05-09T17:05:41.379Z,5.43
2024-05-09T17:10:38.987Z,5.50
2024-05-09T17:15:38.488Z,5.10
2024-05-09T17:20:37.544Z,5.93
2024-05-09T17:25:35.188Z,5.93
2024-05-09T17:30:36.315Z,5.28
2024-05-09T17:35:37.795Z,6.18
2024-05-09T17:40:37.215Z,5.32
2024-05-09T17:45:38.389Z,5.03
2024-05-09T17:50:37.535Z,4.18
2024-05-09T17:55:35.914Z,4.50
2024-05-09T18:00:39.235Z,4.38
2024-05-09T18:05:39.138Z,6.47
2024-05-09T18:10:39.839Z,6.18
2024-05-09T18:15:38.207Z,5.85
2024-05-09T18:20:42.145Z,6.40
2024-05-09T18:30:40.214Z,7.17
2024-05-09T18:35:37.822Z,6.45
2024-05-09T18:40:37.514Z,6.60
2024-05-09T18:45:36.418Z,7.80
2024-05-09T18:50:38.016Z,6.90
2024-05-09T18:55:37.377Z,6.65
2024-05-09T19:00:37.907Z,7.63
2024-05-09T19:05:37.946Z,7.00
2024-05-09T19:10:36.615Z,6.93
2024-05-09T19:15:34.805Z,7.70
2024-05-09T19:20:34.929Z,6.95
2024-05-09T19:25:33.625Z,6.28
2024-05-09T19:30:38.523Z,6.10
2024-05-09T19:35:38.914Z,6.25
2024-05-09T19:40:36.574Z,6.43
2024-05-09T19:45:35.611Z,6.30
2024-05-09T19:50:41.534Z,6.18
2024-05-09T19:55:42.035Z,5.47
2024-05-09T20:00:42.045Z,4.60
2024-05-09T20:05:43.519Z,4.40
2024-05-09T20:10:40.933Z,5.32
2024-05-09T20:15:40.837Z,5.05
2024-05-09T20:20:41.681Z,4.80
2024-05-09T20:25:43.021Z,5.20
2024-05-09T20:30:40.372Z,5.43
2024-05-09T20:35:39.207Z,5.22
2024-05-09T20:40:38.901Z,5.90
2024-05-09T20:45:37.156Z,5.20
2024-05-09T20:50:39.399Z,4.88
2024-05-09T20:55:40.464Z,4.80
2024-05-09T21:00:41.567Z,5.50
2024-05-09T21:05:42.039Z,5.60
2024-05-09T21:10:39.757Z,5.13
2024-05-09T21:15:37.040Z,4.93
2024-05-09T21:20:37.318Z,5.00
2024-05-09T21:25:35.156Z,5.88
2024-05-09T21:30:41.127Z,9.02
2024-05-09T21:35:40.745Z,6.13
2024-05-09T21:40:38.598Z,6.10
2024-05-09T21:45:37.086Z,5.85
2024-05-09T21:50:40.169Z,5.82
2024-05-09T21:55:40.792Z,6.18
2024-05-09T22:00:43.490Z,6.50
2024-05-09T22:05:43.723Z,6.30
2024-05-09T22:10:41.184Z,6.15
2024-05-09T22:15:40.108Z,6.85
2024-05-09T22:20:45.238Z,7.53
2024-05-09T22:25:43.391Z,7.32
2024-05-09T22:30:41.243Z,7.80
2024-05-09T22:35:38.822Z,7.53
2024-05-09T22:40:46.720Z,8.23
2024-05-09T22:45:50.039Z,7.57
2024-05-09T22:50:47.683Z,7.03
2024-05-09T22:55:45.379Z,7.47
2024-05-09T23:00:42.908Z,7.13
2024-05-09T23:05:40.183Z,7.63
2024-05-09T23:10:38.258Z,8.00
2024-05-09T23:15:37.537Z,7.72
2024-05-09T23:20:38.564Z,7.28
2024-05-09T23:25:37.467Z,7.13
2024-05-09T23:30:38.910Z,6.85
2024-05-09T23:35:37.931Z,7.07
2024-05-09T23:40:39.447Z,7.45
2024-05-09T23:45:38.588Z,7.00
2024-05-09T23:50:38.195Z,8.05
2024-05-09T23:55:37.453Z,8.75
